Time;durP1;ratioP1;P1;durP2;ratioP2;P2;SDS_P1;SDS_P2;PMS_P1;PMS_P2;Temp;Humidity;BMP_temperature;BMP_pressure;BME280_temperature;BME280_humidity;BME280_pressure;Samples;Min_cycle;Max_cycle;Signal;HPM_P1;HPM_P2
2022/03/21 00:00:21;;;;;;;27.17;4.57;;;;;;;;;;4921838;29;20493;-68
2022/03/21 00:03:09;;;;;;;28.48;4.55;;;;;;;;;;4927468;29;20055;-66
2022/03/21 00:05:36;;;;;;;23.55;3.90;;;;;;;;;;4925899;29;20073;-68
2022/03/21 00:08:02;;;;;;;24.08;4.00;;;;;;;;;;4922812;29;20489;-69
2022/03/21 00:10:40;;;;;;;29.30;3.95;;;;;;;;;;4926267;29;20063;-68
2022/03/21 00:13:07;;;;;;;21.77;3.83;;;;;;;;;;4926474;29;20059;-65
2022/03/21 00:15:33;;;;;;;20.70;3.60;;;;;;;;;;4927491;29;20102;-67
2022/03/21 00:18:01;;;;;;;23.08;3.42;;;;;;;;;;4925124;29;20509;-67
2022/03/21 00:20:29;;;;;;;29.42;3.67;;;;;;;;;;4926771;29;20082;-71
2022/03/21 00:22:56;;;;;;;22.02;4.40;;;;;;;;;;4927384;29;20051;-68
2022/03/21 00:25:22;;;;;;;26.52;3.35;;;;;;;;;;4925728;29;20056;-67
2022/03/21 00:27:48;;;;;;;32.67;4.90;;;;;;;;;;4923284;29;20055;-69
2022/03/21 00:30:15;;;;;;;29.38;4.78;;;;;;;;;;4924457;29;20066;-68
2022/03/21 00:32:42;;;;;;;28.73;4.20;;;;;;;;;;4928413;29;20591;-67
2022/03/21 00:35:10;;;;;;;34.13;5.18;;;;;;;;;;4925264;29;20043;-69
2022/03/21 00:37:38;;;;;;;23.60;3.83;;;;;;;;;;4925598;29;20568;-66
2022/03/21 00:40:07;;;;;;;26.92;4.35;;;;;;;;;;4926947;29;20086;-66
2022/03/21 00:42:35;;;;;;;28.85;3.83;;;;;;;;;;4927459;29;20654;-65
2022/03/21 00:45:02;;;;;;;35.45;4.60;;;;;;;;;;4925484;29;20086;-65
2022/03/21 00:47:29;;;;;;;33.97;4.57;;;;;;;;;;4924407;29;20059;-65
2022/03/21 00:49:55;;;;;;;36.63;4.82;;;;;;;;;;4928702;29;20553;-66
2022/03/21 00:52:21;;;;;;;33.22;5.15;;;;;;;;;;4929657;29;20083;-66
2022/03/21 00:54:47;;;;;;;35.50;5.30;;;;;;;;;;4928086;29;20056;-65
2022/03/21 00:57:13;;;;;;;32.97;5.75;;;;;;;;;;4922827;29;20051;-66
2022/03/21 00:59:38;;;;;;;29.90;5.47;;;;;;;;;;4926231;29;20450;-69
2022/03/21 01:02:04;;;;;;;23.15;3.78;;;;;;;;;;4928432;29;20520;-73
2022/03/21 01:04:30;;;;;;;22.67;3.58;;;;;;;;;;4909395;29;20142;-67
2022/03/21 01:06:56;;;;;;;19.42;4.40;;;;;;;;;;4923502;29;20056;-67
2022/03/21 01:09:22;;;;;;;22.58;3.78;;;;;;;;;;4926572;29;20066;-67
2022/03/21 01:11:48;;;;;;;21.52;4.10;;;;;;;;;;4927917;29;20055;-66
2022/03/21 01:14:14;;;;;;;31.88;4.53;;;;;;;;;;4929677;29;20044;-65
2022/03/21 01:16:40;;;;;;;27.77;4.88;;;;;;;;;;4928367;29;20056;-67
2022/03/21 01:19:06;;;;;;;22.27;4.15;;;;;;;;;;4929143;29;20050;-65
2022/03/21 01:21:33;;;;;;;30.83;4.50;;;;;;;;;;4929298;29;20059;-65
2022/03/21 01:23:59;;;;;;;36.20;5.43;;;;;;;;;;4929275;29;20063;-64
2022/03/21 01:26:25;;;;;;;34.15;4.55;;;;;;;;;;4929043;29;20056;-65
2022/03/21 01:28:51;;;;;;;27.08;5.20;;;;;;;;;;4928600;29;20039;-66
2022/03/21 01:31:16;;;;;;;30.45;4.97;;;;;;;;;;4927974;29;20050;-65
2022/03/21 01:33:42;;;;;;;30.92;4.63;;;;;;;;;;4929855;29;20481;-69
2022/03/21 01:36:09;;;;;;;36.00;6.05;;;;;;;;;;4931170;29;20137;-66
2022/03/21 01:38:35;;;;;;;36.78;5.05;;;;;;;;;;4929803;29;21082;-66
2022/03/21 01:41:01;;;;;;;38.13;5.38;;;;;;;;;;4930676;29;20441;-66
2022/03/21 01:43:28;;;;;;;44.20;5.47;;;;;;;;;;4931761;29;20090;-66
2022/03/21 01:45:53;;;;;;;39.97;4.88;;;;;;;;;;4928274;29;20064;-65
2022/03/21 01:48:19;;;;;;;27.98;4.35;;;;;;;;;;4927516;29;20048;-65
2022/03/21 01:50:46;;;;;;;32.67;5.00;;;;;;;;;;4931980;29;20048;-65
2022/03/21 01:55:57;;;;;;;;;;;;;;;;;;4929572;29;20051;-66
2022/03/21 01:58:25;;;;;;;39.05;5.30;;;;;;;;;;4928152;29;19927;-66
2022/03/21 02:00:51;;;;;;;27.92;4.88;;;;;;;;;;4925655;29;20130;-66
2022/03/21 02:03:21;;;;;;;36.88;5.38;;;;;;;;;;4931265;29;20051;-68
2022/03/21 02:05:47;;;;;;;36.40;5.47;;;;;;;;;;4927475;29;20052;-65
2022/03/21 02:08:15;;;;;;;32.53;5.63;;;;;;;;;;4927029;29;20051;-68
2022/03/21 02:10:45;;;;;;;36.85;5.70;;;;;;;;;;4927229;29;20039;-66
2022/03/21 02:13:13;;;;;;;36.25;4.40;;;;;;;;;;4928784;29;20398;-65
2022/03/21 02:15:41;;;;;;;38.40;4.82;;;;;;;;;;4930581;29;20515;-67
2022/03/21 02:18:08;;;;;;;31.25;4.88;;;;;;;;;;4929177;29;20560;-68
2022/03/21 02:20:35;;;;;;;33.25;5.18;;;;;;;;;;4926425;29;20054;-67
2022/03/21 02:23:16;;;;;;;30.98;5.00;;;;;;;;;;4925366;29;20119;-67
2022/03/21 02:25:43;;;;;;;37.45;5.35;;;;;;;;;;4927702;29;20078;-66
2022/03/21 02:28:12;;;;;;;33.55;5.30;;;;;;;;;;4925085;29;20044;-66
2022/03/21 02:30:47;;;;;;;33.58;4.88;;;;;;;;;;4926759;29;20513;-67
2022/03/21 02:33:15;;;;;;;39.55;5.97;;;;;;;;;;4925745;29;20052;-64
2022/03/21 02:35:44;;;;;;;37.65;5.80;;;;;;;;;;4929271;29;20119;-66
2022/03/21 02:38:12;;;;;;;42.70;6.35;;;;;;;;;;4926499;29;20051;-66
2022/03/21 02:40:38;;;;;;;31.70;5.30;;;;;;;;;;4927734;29;20043;-65
2022/03/21 02:43:04;;;;;;;33.92;5.07;;;;;;;;;;4928514;29;20056;-66
2022/03/21 02:45:30;;;;;;;37.33;6.63;;;;;;;;;;4927746;29;20062;-66
2022/03/21 02:47:56;;;;;;;37.55;6.07;;;;;;;;;;4926125;29;20051;-65
2022/03/21 02:50:49;;;;;;;32.58;5.22;;;;;;;;;;4927510;29;20847;-65
2022/03/21 02:53:16;;;;;;;30.75;5.38;;;;;;;;;;4927525;29;20066;-67
2022/03/21 02:55:42;;;;;;;40.85;6.35;;;;;;;;;;4925635;29;20047;-65
2022/03/21 02:58:09;;;;;;;36.33;5.63;;;;;;;;;;4926837;29;20055;-66
2022/03/21 03:00:35;;;;;;;35.03;5.53;;;;;;;;;;4925503;29;20110;-68
2022/03/21 03:03:01;;;;;;;30.30;5.43;;;;;;;;;;4929049;29;20059;-67
2022/03/21 03:05:26;;;;;;;28.42;4.70;;;;;;;;;;4928285;29;20134;-65
2022/03/21 03:07:52;;;;;;;29.15;5.30;;;;;;;;;;4926814;29;20145;-67
2022/03/21 03:10:18;;;;;;;31.25;4.78;;;;;;;;;;4926218;29;20186;-66
2022/03/21 03:12:44;;;;;;;37.65;4.88;;;;;;;;;;4927881;29;20493;-66
2022/03/21 03:15:10;;;;;;;31.27;6.07;;;;;;;;;;4927333;29;20047;-66
2022/03/21 03:17:36;;;;;;;39.17;5.93;;;;;;;;;;4909588;29;20063;-65
2022/03/21 03:20:02;;;;;;;34.97;6.40;;;;;;;;;;4926666;29;20218;-66
2022/03/21 03:22:29;;;;;;;36.78;6.00;;;;;;;;;;4928422;29;20099;-65
2022/03/21 03:24:56;;;;;;;40.22;5.80;;;;;;;;;;4926212;29;20106;-66
2022/03/21 03:27:21;;;;;;;43.75;6.43;;;;;;;;;;4925134;29;20138;-65
2022/03/21 03:29:47;;;;;;;43.95;5.57;;;;;;;;;;4926559;29;20047;-66
2022/03/21 03:32:13;;;;;;;46.28;6.57;;;;;;;;;;4927027;29;20054;-69
2022/03/21 03:34:39;;;;;;;31.35;4.80;;;;;;;;;;4909666;29;20079;-66
2022/03/21 03:37:07;;;;;;;31.83;6.40;;;;;;;;;;4925428;29;20079;-66
2022/03/21 03:39:33;;;;;;;28.50;5.30;;;;;;;;;;4921829;29;20060;-67
2022/03/21 03:41:58;;;;;;;38.08;6.10;;;;;;;;;;4905883;29;20119;-68
2022/03/21 03:44:26;;;;;;;34.17;6.45;;;;;;;;;;4908471;29;20120;-67
2022/03/21 03:46:52;;;;;;;37.35;5.60;;;;;;;;;;4905164;29;20079;-68
2022/03/21 03:49:18;;;;;;;32.00;4.97;;;;;;;;;;4905156;29;20728;-68
2022/03/21 03:51:44;;;;;;;39.22;5.85;;;;;;;;;;4907945;29;20139;-66
2022/03/21 03:54:10;;;;;;;38.58;5.03;;;;;;;;;;4908138;29;20507;-65
2022/03/21 03:56:36;;;;;;;38.15;5.93;;;;;;;;;;4905002;29;21111;-66
2022/03/21 03:59:01;;;;;;;34.08;5.03;;;;;;;;;;4907547;29;20989;-67
2022/03/21 04:01:28;;;;;;;35.95;5.70;;;;;;;;;;4905805;29;20092;-66
2022/03/21 04:03:53;;;;;;;45.20;5.53;;;;;;;;;;4909471;29;20070;-65
2022/03/21 04:06:22;;;;;;;29.85;4.65;;;;;;;;;;4906878;29;20051;-68
2022/03/21 04:08:49;;;;;;;38.10;5.82;;;;;;;;;;4906066;29;20048;-66
2022/03/21 04:11:16;;;;;;;42.88;5.68;;;;;;;;;;4906978;29;20067;-66
2022/03/21 04:13:42;;;;;;;33.50;5.22;;;;;;;;;;4907855;29;20051;-66
2022/03/21 04:16:09;;;;;;;38.45;5.10;;;;;;;;;;4908929;29;20048;-66
2022/03/21 04:18:38;;;;;;;46.95;5.90;;;;;;;;;;4904184;29;20139;-71
2022/03/21 04:21:04;;;;;;;32.67;5.20;;;;;;;;;;4906019;29;20158;-65
2022/03/21 04:23:30;;;;;;;39.92;6.15;;;;;;;;;;4907868;29;20500;-65
2022/03/21 04:25:56;;;;;;;37.90;5.10;;;;;;;;;;4904553;29;20848;-65
2022/03/21 04:28:22;;;;;;;42.50;4.88;;;;;;;;;;4906650;29;20071;-65
2022/03/21 04:30:48;;;;;;;36.88;5.93;;;;;;;;;;4906873;29;20084;-65
2022/03/21 04:33:14;;;;;;;34.08;4.75;;;;;;;;;;4907001;29;20046;-68
2022/03/21 04:35:42;;;;;;;35.65;4.60;;;;;;;;;;4905771;29;20083;-66
2022/03/21 04:38:15;;;;;;;37.60;4.78;;;;;;;;;;4910518;29;20506;-64
2022/03/21 04:40:44;;;;;;;37.20;5.50;;;;;;;;;;4927108;29;20048;-66
2022/03/21 04:43:11;;;;;;;39.22;4.85;;;;;;;;;;4928187;29;20637;-66
2022/03/21 04:45:37;;;;;;;39.17;5.88;;;;;;;;;;4927634;29;20056;-66
2022/03/21 04:48:04;;;;;;;26.70;4.63;;;;;;;;;;4924256;29;20058;-66
2022/03/21 04:50:33;;;;;;;31.23;4.90;;;;;;;;;;4925101;29;20056;-66
2022/03/21 04:52:59;;;;;;;28.85;5.18;;;;;;;;;;4925566;29;20051;-66
2022/03/21 04:55:26;;;;;;;28.40;5.15;;;;;;;;;;4927617;29;20075;-66
2022/03/21 04:57:52;;;;;;;33.30;5.15;;;;;;;;;;4924332;29;20052;-67
2022/03/21 05:00:18;;;;;;;33.33;5.80;;;;;;;;;;4925229;29;20046;-68
2022/03/21 05:02:44;;;;;;;32.30;5.20;;;;;;;;;;4924850;29;20055;-68
2022/03/21 05:05:10;;;;;;;33.90;6.43;;;;;;;;;;4925235;29;20046;-67
2022/03/21 05:07:43;;;;;;;29.75;4.65;;;;;;;;;;4924136;29;20055;-70
2022/03/21 05:10:09;;;;;;;41.35;5.03;;;;;;;;;;4924712;29;20374;-67
2022/03/21 05:12:36;;;;;;;36.10;4.82;;;;;;;;;;4927974;29;20107;-69
2022/03/21 05:15:04;;;;;;;31.45;5.35;;;;;;;;;;4926243;29;20056;-65
2022/03/21 05:17:30;;;;;;;28.10;5.00;;;;;;;;;;4925349;29;20142;-66
2022/03/21 05:19:56;;;;;;;35.28;5.05;;;;;;;;;;4921749;29;20279;-68
2022/03/21 05:22:22;;;;;;;26.63;4.82;;;;;;;;;;4924076;29;20055;-65
2022/03/21 05:35:55;;;;;;;33.55;5.47;;;;;;;;;;4924255;29;20044;-68
2022/03/21 05:38:26;;;;;;;32.97;5.70;;;;;;;;;;4922276;29;20052;-66
2022/03/21 05:40:56;;;;;;;29.95;5.43;;;;;;;;;;4925562;29;20048;-65
2022/03/21 05:43:23;;;;;;;34.72;4.72;;;;;;;;;;4922337;29;20417;-65
2022/03/21 05:45:49;;;;;;;34.72;5.25;;;;;;;;;;4924296;29;20167;-65
2022/03/21 05:51:00;;;;;;;32.85;5.10;;;;;;;;;;4925140;29;20114;-66
2022/03/21 05:53:26;;;;;;;35.95;5.78;;;;;;;;;;4925864;29;20518;-67
2022/03/21 05:55:52;;;;;;;29.00;5.15;;;;;;;;;;4925379;29;20103;-66
2022/03/21 05:58:18;;;;;;;34.67;6.05;;;;;;;;;;4923398;29;20496;-69
2022/03/21 06:00:45;;;;;;;40.00;5.30;;;;;;;;;;4925158;29;20079;-71
2022/03/21 06:03:10;;;;;;;32.65;5.78;;;;;;;;;;4930590;29;20059;-66
2022/03/21 06:05:37;;;;;;;32.53;7.03;;;;;;;;;;4928990;29;20056;-65
2022/03/21 06:08:03;;;;;;;33.00;5.72;;;;;;;;;;4926569;29;20687;-66
2022/03/21 06:10:29;;;;;;;27.02;5.70;;;;;;;;;;4926078;29;20087;-65
2022/03/21 06:12:55;;;;;;;38.70;6.03;;;;;;;;;;4927546;29;20449;-66
2022/03/21 06:15:21;;;;;;;35.17;5.88;;;;;;;;;;4928162;29;20094;-66
2022/03/21 06:17:47;;;;;;;34.03;5.15;;;;;;;;;;4928126;29;20064;-67
2022/03/21 06:20:15;;;;;;;34.08;5.38;;;;;;;;;;4927958;29;20517;-68
2022/03/21 06:22:42;;;;;;;31.58;5.53;;;;;;;;;;4926751;29;20058;-65
2022/03/21 06:25:10;;;;;;;27.85;5.53;;;;;;;;;;4927921;29;20056;-66
2022/03/21 06:27:40;;;;;;;36.30;5.72;;;;;;;;;;4927219;29;20134;-65
2022/03/21 06:30:08;;;;;;;37.05;6.28;;;;;;;;;;4927570;29;20943;-67
2022/03/21 06:32:36;;;;;;;38.38;5.78;;;;;;;;;;4926846;29;20174;-66
2022/03/21 06:35:04;;;;;;;36.65;5.47;;;;;;;;;;4928353;29;20059;-66
2022/03/21 06:37:31;;;;;;;41.78;5.28;;;;;;;;;;4925714;29;20047;-66
2022/03/21 06:39:57;;;;;;;37.00;5.75;;;;;;;;;;4925339;29;20043;-67
2022/03/21 06:42:23;;;;;;;39.13;5.30;;;;;;;;;;4927251;29;20052;-68
2022/03/21 06:44:50;;;;;;;45.45;6.72;;;;;;;;;;4927037;29;20122;-68
2022/03/21 06:47:17;;;;;;;37.78;5.60;;;;;;;;;;4924619;29;20051;-68
2022/03/21 06:49:44;;;;;;;43.03;6.97;;;;;;;;;;4929553;29;20090;-68
2022/03/21 06:52:10;;;;;;;35.05;5.80;;;;;;;;;;4928431;29;20485;-69
2022/03/21 06:54:36;;;;;;;41.47;6.03;;;;;;;;;;4927632;29;20052;-69
2022/03/21 06:57:03;;;;;;;46.65;7.07;;;;;;;;;;4921274;29;20058;-66
2022/03/21 06:59:29;;;;;;;40.13;7.43;;;;;;;;;;4925523;29;20059;-66
2022/03/21 07:01:57;;;;;;;36.25;5.90;;;;;;;;;;4929300;29;20055;-66
2022/03/21 07:04:26;;;;;;;41.60;7.70;;;;;;;;;;4912315;29;20158;-67
2022/03/21 07:06:53;;;;;;;40.30;6.55;;;;;;;;;;4908161;29;21224;-67
2022/03/21 07:09:20;;;;;;;37.22;6.30;;;;;;;;;;4923042;29;20052;-67
2022/03/21 07:11:46;;;;;;;42.13;6.07;;;;;;;;;;4925552;29;20051;-66
2022/03/21 07:14:13;;;;;;;43.05;5.90;;;;;;;;;;4923074;29;20586;-68
2022/03/21 07:16:38;;;;;;;42.92;5.25;;;;;;;;;;4924349;29;20152;-68
2022/03/21 07:19:06;;;;;;;44.83;6.32;;;;;;;;;;4924927;29;20082;-68
2022/03/21 07:21:33;;;;;;;41.80;5.95;;;;;;;;;;4928458;29;20055;-68
2022/03/21 07:23:59;;;;;;;45.05;6.38;;;;;;;;;;4928067;29;20067;-70
2022/03/21 07:26:25;;;;;;;36.97;5.93;;;;;;;;;;4930765;29;20063;-67
2022/03/21 07:28:51;;;;;;;36.53;5.63;;;;;;;;;;4929189;29;20047;-67
2022/03/21 07:31:17;;;;;;;31.95;5.95;;;;;;;;;;4928165;29;20497;-68
2022/03/21 07:33:43;;;;;;;38.47;6.85;;;;;;;;;;4926769;29;20059;-69
2022/03/21 07:36:10;;;;;;;29.65;5.07;;;;;;;;;;4921659;29;20064;-68
2022/03/21 07:38:36;;;;;;;37.85;5.78;;;;;;;;;;4924078;29;20586;-66
2022/03/21 07:41:07;;;;;;;36.78;5.22;;;;;;;;;;4923837;29;20074;-67
2022/03/21 07:43:37;;;;;;;39.60;6.15;;;;;;;;;;4927944;29;20059;-66
2022/03/21 07:48:50;;;;;;;33.35;5.55;;;;;;;;;;4904345;29;20040;-65
2022/03/21 07:51:16;;;;;;;41.10;5.68;;;;;;;;;;4923950;29;20056;-66
2022/03/21 07:53:42;;;;;;;35.42;5.38;;;;;;;;;;4925027;29;20053;-66
2022/03/21 07:56:08;;;;;;;36.22;6.50;;;;;;;;;;4925763;29;20058;-67
2022/03/21 07:58:35;;;;;;;35.30;5.35;;;;;;;;;;4924150;29;20055;-67
2022/03/21 08:01:02;;;;;;;31.55;5.25;;;;;;;;;;4924094;29;20410;-67
2022/03/21 08:03:28;;;;;;;35.90;5.00;;;;;;;;;;4925320;29;20055;-68
2022/03/21 08:05:57;;;;;;;42.25;5.63;;;;;;;;;;4924953;29;20134;-68
2022/03/21 08:08:23;;;;;;;37.80;6.68;;;;;;;;;;4921754;29;20070;-66
2022/03/21 08:10:49;;;;;;;46.92;6.68;;;;;;;;;;4925594;29;20461;-65
2022/03/21 08:13:19;;;;;;;37.08;5.35;;;;;;;;;;4926738;29;20054;-68
2022/03/21 08:15:45;;;;;;;37.63;5.70;;;;;;;;;;4928661;29;20047;-68
2022/03/21 08:18:12;;;;;;;42.42;6.07;;;;;;;;;;4925866;29;20063;-67
2022/03/21 08:20:39;;;;;;;30.80;5.25;;;;;;;;;;4927646;29;20055;-68
2022/03/21 08:23:08;;;;;;;37.22;6.18;;;;;;;;;;4924247;29;20051;-68
2022/03/21 08:25:36;;;;;;;42.25;6.82;;;;;;;;;;4922292;29;20047;-68
2022/03/21 08:28:02;;;;;;;37.15;6.75;;;;;;;;;;4920532;29;20055;-67
2022/03/21 08:30:32;;;;;;;34.67;5.30;;;;;;;;;;4923556;29;20062;-68
2022/03/21 08:32:59;;;;;;;37.28;5.95;;;;;;;;;;4923597;29;20087;-67
2022/03/21 08:35:25;;;;;;;35.42;5.78;;;;;;;;;;4924118;29;20494;-68
2022/03/21 08:37:51;;;;;;;32.92;5.20;;;;;;;;;;4921486;29;20051;-69
2022/03/21 08:40:18;;;;;;;40.30;6.00;;;;;;;;;;4912798;29;20060;-67
2022/03/21 08:42:44;;;;;;;39.55;6.68;;;;;;;;;;4924525;29;20069;-67
2022/03/21 08:45:10;;;;;;;45.20;6.18;;;;;;;;;;4923037;29;20047;-67
2022/03/21 08:47:37;;;;;;;43.83;7.68;;;;;;;;;;4920734;29;20128;-67
2022/03/21 08:50:04;;;;;;;37.92;5.55;;;;;;;;;;4924359;29;20059;-68
2022/03/21 08:52:30;;;;;;;35.78;5.57;;;;;;;;;;4924085;29;21156;-68
2022/03/21 08:54:57;;;;;;;45.90;6.43;;;;;;;;;;4913344;29;20071;-67
2022/03/21 08:57:22;;;;;;;48.05;7.13;;;;;;;;;;4910664;29;20060;-69
2022/03/21 08:59:49;;;;;;;37.10;5.75;;;;;;;;;;4921834;29;20067;-70
2022/03/21 09:02:17;;;;;;;45.35;6.43;;;;;;;;;;4916329;29;20044;-68
2022/03/21 09:04:44;;;;;;;47.67;7.05;;;;;;;;;;4922383;29;20044;-68
2022/03/21 09:07:10;;;;;;;30.85;5.25;;;;;;;;;;4921510;29;20098;-68
2022/03/21 09:09:36;;;;;;;39.72;6.32;;;;;;;;;;4915311;29;20075;-66
2022/03/21 09:12:02;;;;;;;41.30;6.97;;;;;;;;;;4925171;29;20152;-68
2022/03/21 09:14:29;;;;;;;46.33;6.93;;;;;;;;;;4920962;29;20052;-69
2022/03/21 09:16:56;;;;;;;34.70;5.85;;;;;;;;;;4922134;29;20536;-71
2022/03/21 09:19:25;;;;;;;39.75;5.80;;;;;;;;;;4925097;29;20055;-66
2022/03/21 09:21:52;;;;;;;38.38;6.25;;;;;;;;;;4924110;29;20098;-68
2022/03/21 09:24:19;;;;;;;39.95;6.53;;;;;;;;;;4921549;29;20136;-66
2022/03/21 09:26:51;;;;;;;37.95;5.82;;;;;;;;;;4919874;29;20052;-67
2022/03/21 09:29:17;;;;;;;44.10;6.20;;;;;;;;;;4920174;29;20421;-69
2022/03/21 09:31:43;;;;;;;46.05;6.38;;;;;;;;;;4924932;29;20056;-67
2022/03/21 09:34:12;;;;;;;38.70;6.55;;;;;;;;;;4927054;29;20582;-65
2022/03/21 09:36:38;;;;;;;39.65;5.63;;;;;;;;;;4931678;29;20103;-67
2022/03/21 09:39:06;;;;;;;43.10;6.65;;;;;;;;;;4913040;29;20063;-68
2022/03/21 09:41:33;;;;;;;41.47;6.95;;;;;;;;;;4928251;29;20488;-66
2022/03/21 09:44:07;;;;;;;37.05;6.15;;;;;;;;;;4928599;29;20055;-66
2022/03/21 09:46:34;;;;;;;35.53;6.20;;;;;;;;;;4926544;29;20059;-66
2022/03/21 09:49:03;;;;;;;40.17;6.53;;;;;;;;;;4925913;29;20056;-70
2022/03/21 09:51:30;;;;;;;41.25;6.07;;;;;;;;;;4930399;29;20610;-66
2022/03/21 09:53:58;;;;;;;37.03;6.72;;;;;;;;;;4929890;29;20127;-67
2022/03/21 09:56:25;;;;;;;47.75;6.95;;;;;;;;;;4927418;29;20059;-66
2022/03/21 09:59:01;;;;;;;38.33;6.45;;;;;;;;;;4926371;29;20044;-68
2022/03/21 10:01:32;;;;;;;38.40;7.43;;;;;;;;;;4925508;29;20066;-66
2022/03/21 10:04:00;;;;;;;39.10;6.35;;;;;;;;;;4909255;29;20518;-67
2022/03/21 10:06:33;;;;;;;40.45;6.53;;;;;;;;;;4927435;29;20051;-68
2022/03/21 10:09:19;;;;;;;47.28;7.72;;;;;;;;;;4921065;29;20071;-68
2022/03/21 10:11:58;;;;;;;43.47;7.50;;;;;;;;;;4925481;29;20146;-67
2022/03/21 10:14:24;;;;;;;42.78;7.30;;;;;;;;;;4922355;29;20044;-67
2022/03/21 10:17:24;;;;;;;49.17;7.38;;;;;;;;;;4925210;29;20163;-67
2022/03/21 10:19:52;;;;;;;44.53;6.53;;;;;;;;;;4924734;29;20055;-68
2022/03/21 10:22:20;;;;;;;49.97;6.85;;;;;;;;;;4909520;29;20052;-67
2022/03/21 10:24:49;;;;;;;43.15;7.43;;;;;;;;;;4928850;29;20187;-70
2022/03/21 10:27:39;;;;;;;38.45;7.13;;;;;;;;;;4926136;29;20051;-67
2022/03/21 10:30:15;;;;;;;46.20;7.32;;;;;;;;;;4923864;29;20602;-67
2022/03/21 10:32:44;;;;;;;38.45;7.43;;;;;;;;;;4926870;29;20059;-68
2022/03/21 10:35:30;;;;;;;47.50;7.15;;;;;;;;;;4924530;29;20162;-67
2022/03/21 10:38:02;;;;;;;43.03;7.38;;;;;;;;;;4902488;29;20059;-67
2022/03/21 10:40:33;;;;;;;52.78;7.57;;;;;;;;;;4922642;29;20367;-67
2022/03/21 10:43:04;;;;;;;53.33;7.32;;;;;;;;;;4927358;29;20060;-71
2022/03/21 10:45:42;;;;;;;43.17;6.78;;;;;;;;;;4908520;29;20051;-66
2022/03/21 10:48:17;;;;;;;45.08;6.70;;;;;;;;;;4924433;29;20058;-68
2022/03/21 10:50:45;;;;;;;;;;;;;;;;;;4928564;29;20060;-67
2022/03/21 10:53:12;;;;;;;49.95;7.80;;;;;;;;;;4925837;29;20112;-68
2022/03/21 10:55:41;;;;;;;39.65;6.70;;;;;;;;;;4926672;29;20079;-71
2022/03/21 10:58:07;;;;;;;45.17;8.30;;;;;;;;;;4927539;29;20043;-67
2022/03/21 11:00:34;;;;;;;36.17;6.13;;;;;;;;;;4927303;29;20063;-69
2022/03/21 11:03:00;;;;;;;43.85;7.95;;;;;;;;;;4930069;29;20118;-66
2022/03/21 11:05:30;;;;;;;44.35;6.45;;;;;;;;;;4927366;29;20086;-67
2022/03/21 11:07:56;;;;;;;47.40;6.45;;;;;;;;;;4925738;29;20051;-70
2022/03/21 11:10:25;;;;;;;51.15;7.70;;;;;;;;;;4921883;29;20514;-69
2022/03/21 11:12:51;;;;;;;38.53;5.97;;;;;;;;;;4923841;29;20047;-69
2022/03/21 11:15:17;;;;;;;37.35;7.07;;;;;;;;;;4922900;29;20473;-69
2022/03/21 11:17:44;;;;;;;46.45;7.25;;;;;;;;;;4925787;29;20055;-68
2022/03/21 11:20:12;;;;;;;51.22;7.13;;;;;;;;;;4926826;29;20055;-69
2022/03/21 11:22:39;;;;;;;40.13;7.25;;;;;;;;;;4925766;29;20083;-69
2022/03/21 11:25:08;;;;;;;40.75;6.60;;;;;;;;;;4916984;29;20055;-69
2022/03/21 11:27:59;;;;;;;51.22;6.93;;;;;;;;;;4925551;29;20110;-69
2022/03/21 11:30:50;;;;;;;48.40;6.82;;;;;;;;;;4922409;29;20052;-68
2022/03/21 11:33:43;;;;;;;39.70;7.00;;;;;;;;;;4920951;29;20040;-68
2022/03/21 11:36:10;;;;;;;46.90;7.13;;;;;;;;;;4929801;29;20484;-68
2022/03/21 11:38:47;;;;;;;63.58;7.60;;;;;;;;;;4924751;29;20171;-67
2022/03/21 11:41:21;;;;;;;40.60;7.18;;;;;;;;;;4927239;29;20573;-69
2022/03/21 11:44:08;;;;;;;44.17;8.15;;;;;;;;;;4927180;29;20044;-68
2022/03/21 11:46:38;;;;;;;41.75;7.05;;;;;;;;;;4927677;29;20601;-69
2022/03/21 11:49:25;;;;;;;47.22;7.35;;;;;;;;;;4933729;29;20051;-66
2022/03/21 11:51:58;;;;;;;44.17;6.82;;;;;;;;;;4894860;29;20394;-68
2022/03/21 11:54:36;;;;;;;40.33;6.57;;;;;;;;;;4922895;29;20086;-66
2022/03/21 11:57:17;;;;;;;40.20;7.22;;;;;;;;;;4919350;29;20066;-70
2022/03/21 11:59:48;;;;;;;39.88;6.00;;;;;;;;;;4925196;29;20047;-67
2022/03/21 12:02:14;;;;;;;40.00;7.18;;;;;;;;;;4921428;29;20055;-66
2022/03/21 12:04:41;;;;;;;36.85;6.50;;;;;;;;;;4924268;29;20059;-67
2022/03/21 12:07:12;;;;;;;46.00;7.43;;;;;;;;;;4918270;29;20948;-69
2022/03/21 12:09:50;;;;;;;40.15;7.05;;;;;;;;;;4923767;29;20633;-67
2022/03/21 12:12:20;;;;;;;32.00;6.00;;;;;;;;;;4921713;29;20059;-69
2022/03/21 12:14:48;;;;;;;43.45;6.53;;;;;;;;;;4907193;29;20063;-66
2022/03/21 12:17:13;;;;;;;37.65;6.65;;;;;;;;;;4923476;29;20239;-68
2022/03/21 12:19:48;;;;;;;39.33;6.53;;;;;;;;;;4920927;29;20441;-67
2022/03/21 12:25:14;;;;;;;56.47;8.10;;;;;;;;;;4915696;29;20075;-68
2022/03/21 12:27:51;;;;;;;41.95;7.38;;;;;;;;;;4924492;29;20530;-68
2022/03/21 12:30:23;;;;;;;44.03;6.00;;;;;;;;;;4924080;29;20048;-68
2022/03/21 12:32:55;;;;;;;38.05;6.10;;;;;;;;;;4908105;29;20142;-69
2022/03/21 12:35:39;;;;;;;33.45;5.88;;;;;;;;;;4928630;29;20047;-66
2022/03/21 12:38:25;;;;;;;;;;;;;;;;;;4922887;29;20118;-68
2022/03/21 12:40:58;;;;;;;;;;;;;;;;;;4923842;29;19922;-69
2022/03/21 12:43:27;;;;;;;39.05;6.35;;;;;;;;;;4924675;29;20368;-69
2022/03/21 12:45:59;;;;;;;46.65;6.57;;;;;;;;;;4912491;29;20056;-65
2022/03/21 12:48:30;;;;;;;37.25;6.35;;;;;;;;;;4923577;29;20052;-66
2022/03/21 12:50:56;;;;;;;48.05;8.32;;;;;;;;;;4924153;29;20047;-67
2022/03/21 12:53:23;;;;;;;47.90;7.28;;;;;;;;;;4919496;29;20102;-67
2022/03/21 12:56:03;;;;;;;55.45;7.25;;;;;;;;;;4927710;29;20040;-68
2022/03/21 12:58:29;;;;;;;42.60;7.85;;;;;;;;;;4891350;29;20485;-68
2022/03/21 13:00:57;;;;;;;62.40;8.82;;;;;;;;;;4910766;29;20084;-69
2022/03/21 13:03:24;;;;;;;47.38;7.47;;;;;;;;;;4925212;29;20048;-69
2022/03/21 13:11:37;;;;;;;41.35;6.72;;;;;;;;;;4928786;29;20071;-67
2022/03/21 13:14:06;;;;;;;43.15;6.95;;;;;;;;;;4927145;29;20102;-67
2022/03/21 13:16:38;;;;;;;34.85;5.78;;;;;;;;;;4926264;29;20280;-64
2022/03/21 13:19:09;;;;;;;41.55;7.15;;;;;;;;;;4928712;29;20527;-67
2022/03/21 13:21:36;;;;;;;47.55;7.10;;;;;;;;;;4928039;29;20517;-68
2022/03/21 13:24:03;;;;;;;38.85;5.82;;;;;;;;;;4928702;29;20055;-68
2022/03/21 13:26:29;;;;;;;48.60;6.75;;;;;;;;;;4922925;29;20048;-66
2022/03/21 13:29:08;;;;;;;37.80;5.70;;;;;;;;;;4926285;29;20055;-68
2022/03/21 13:31:33;;;;;;;51.60;8.05;;;;;;;;;;4927425;29;20056;-66
2022/03/21 13:34:05;;;;;;;49.67;7.72;;;;;;;;;;4926658;29;20387;-65
2022/03/21 13:36:39;;;;;;;46.08;6.85;;;;;;;;;;4926834;29;20055;-66
2022/03/21 13:39:13;;;;;;;39.25;5.90;;;;;;;;;;4926955;29;20056;-64
2022/03/21 13:41:55;;;;;;;43.00;6.85;;;;;;;;;;4926847;29;20048;-66
2022/03/21 13:44:28;;;;;;;44.33;6.90;;;;;;;;;;4927043;29;20050;-65
2022/03/21 13:47:01;;;;;;;43.72;5.55;;;;;;;;;;4926590;29;20464;-67
2022/03/21 13:49:48;;;;;;;37.55;5.95;;;;;;;;;;4928982;29;20051;-65
2022/03/21 13:52:36;;;;;;;37.78;6.68;;;;;;;;;;4926630;29;21176;-66
2022/03/21 13:55:02;;;;;;;37.97;6.10;;;;;;;;;;4928295;29;20042;-68
2022/03/21 13:57:28;;;;;;;39.25;6.15;;;;;;;;;;4913658;29;20122;-65
2022/03/21 14:00:10;;;;;;;36.25;6.40;;;;;;;;;;4916826;29;20056;-67
2022/03/21 14:02:47;;;;;;;38.42;5.90;;;;;;;;;;4908252;29;20055;-67
2022/03/21 14:05:20;;;;;;;38.58;5.82;;;;;;;;;;4926032;29;20059;-67
2022/03/21 14:07:51;;;;;;;37.17;5.95;;;;;;;;;;4923529;29;20056;-66
2022/03/21 14:10:21;;;;;;;36.22;5.82;;;;;;;;;;4925826;29;20429;-69
2022/03/21 14:12:51;;;;;;;40.47;6.07;;;;;;;;;;4927313;29;20071;-69
2022/03/21 14:15:22;;;;;;;35.75;6.80;;;;;;;;;;4927498;29;20054;-68
2022/03/21 14:17:48;;;;;;;42.78;6.85;;;;;;;;;;4929317;29;20135;-67
2022/03/21 14:20:17;;;;;;;38.05;6.35;;;;;;;;;;4928807;29;20408;-66
2022/03/21 14:22:47;;;;;;;34.45;5.78;;;;;;;;;;4929155;29;20059;-69
2022/03/21 14:27:58;;;;;;;;;;;;;;;;;;4925839;29;20051;-66
2022/03/21 14:30:24;;;;;;;43.20;5.65;;;;;;;;;;4928076;29;20352;-66
2022/03/21 14:32:50;;;;;;;47.42;5.78;;;;;;;;;;4930461;29;20055;-67
2022/03/21 14:35:16;;;;;;;38.20;5.50;;;;;;;;;;4930782;29;20066;-66
2022/03/21 14:37:42;;;;;;;38.08;5.88;;;;;;;;;;4928208;29;20059;-66
2022/03/21 14:40:09;;;;;;;45.72;7.18;;;;;;;;;;4923812;29;20059;-68
2022/03/21 14:42:35;;;;;;;36.15;6.00;;;;;;;;;;4929517;29;20514;-69
2022/03/21 14:45:01;;;;;;;35.40;6.18;;;;;;;;;;4931211;29;20450;-68
2022/03/21 14:47:27;;;;;;;35.40;6.00;;;;;;;;;;4925340;29;20048;-67
2022/03/21 14:49:53;;;;;;;37.10;5.72;;;;;;;;;;4926363;29;20059;-69
2022/03/21 14:52:19;;;;;;;53.33;6.47;;;;;;;;;;4925078;29;20389;-68
2022/03/21 14:54:45;;;;;;;38.92;5.97;;;;;;;;;;4923498;29;20837;-67
2022/03/21 14:57:10;;;;;;;41.60;6.88;;;;;;;;;;4924178;29;20062;-68
2022/03/21 14:59:36;;;;;;;49.78;7.60;;;;;;;;;;4926226;29;20079;-68
2022/03/21 15:02:02;;;;;;;37.70;6.47;;;;;;;;;;4927291;29;20075;-69
2022/03/21 15:04:29;;;;;;;41.92;6.05;;;;;;;;;;4930069;29;20062;-69
2022/03/21 15:06:54;;;;;;;37.17;5.85;;;;;;;;;;4926546;29;20051;-68
2022/03/21 15:09:20;;;;;;;36.17;5.75;;;;;;;;;;4925212;29;20758;-68